Oelwein, IA

3:21 PM CDT on October 19, 2017 (GMT -0500)
Oelwein Municipal

Weather History for KOLZ - February, 2014

Change the Weather History Date:

Thursday, February 27, 2014

  Actual Average Record
Temperature  
Mean Temperature -2 °F -  
Max Temperature 6 °F 36 °F 60 °F (2016)
Min Temperature -9 °F 18 °F -22 °F (2015)
Degree Days  
Heating Degree Days 66    
Moisture  
Dew Point -16 °F    
Average Humidity 58    
Maximum Humidity 72    
Minimum Humidity 50    
Precipitation  
Precipitation 0.00 in - - ()
Sea Level Pressure  
Sea Level Pressure 30.08 in    
Wind  
Wind Speed 17 mph (NNW)    
Max Wind Speed 30 mph    
Max Gust Speed 43 mph    
Visibility 10 miles    
Events      
Averages and records for this station are not official NWS values.
T = Trace of Precipitation, MM = Missing Value Source: NWS Daily Summary

Daily Weather History Graph

Daily Weather History Graph

Search for Another Location

Airport or City:

Trip Planner

Search our weather history database for the weather conditions in past years. The results will help you decide how hot, cold, wet, or windy it might be!

Date:

Astronomy

Feb. 27, 2014 Rise Set
Actual Time 6:46 AM CST 5:55 PM CST
Civil Twilight 6:18 AM CST 6:23 PM CST
Nautical Twilight 5:45 AM CST 6:56 PM CST
Astronomical Twilight 5:13 AM CST 7:28 PM CST
Moon 5:21 AM CST (2/27) 4:19 PM CST (2/27)
Length of Visible Light 12h 05m
Length of Day
11h 08m
Waning Crescent, 4% of the Moon is Illuminated
Feb 27
Waning Crescent
Mar 1
New
Mar 8
First Quarter
Mar 16
Full
Mar 23
Last Quarter

Hourly Weather History & Observations

Time (CST) Temp. Windchill Dew Point Humidity Pressure Visibility Wind Dir Wind Speed Gust Speed Precip Events Conditions
12:15 AM 6.8 °F -16.2 °F -2.2 °F 67% 29.82 in 4.0 mi NW 28.8 mph 39.1 mph N/A   Haze
12:35 AM 6.8 °F -15.9 °F -2.2 °F 67% 29.84 in 10.0 mi NW 27.6 mph 35.7 mph N/A   Clear
12:55 AM 5.0 °F -18.7 °F -2.2 °F 72% 29.85 in 10.0 mi NW 28.8 mph 36.8 mph N/A   Clear
1:15 AM 5.0 °F -19.0 °F -4.0 °F 66% 29.86 in 9.0 mi NW 29.9 mph 42.6 mph N/A   Clear
1:35 AM 3.2 °F -19.0 °F -5.8 °F 66% 29.88 in 8.0 mi NNW 23.0 mph 33.4 mph N/A   Clear
1:55 AM 1.4 °F -23.9 °F -9.4 °F 61% 29.89 in 5.0 mi NNW 29.9 mph 40.3 mph N/A   Haze
2:15 AM -0.4 °F -26.0 °F -9.4 °F 66% 29.91 in 9.0 mi NNW 28.8 mph 39.1 mph N/A   Clear
2:35 AM -0.4 °F -25.2 °F -11.2 °F 60% 29.92 in 8.0 mi NNW 26.5 mph - N/A   Clear
2:55 AM -0.4 °F -23.3 °F -11.2 °F 60% 29.93 in 10.0 mi NW 21.9 mph 29.9 mph N/A   Clear
3:15 AM -2.2 °F -26.7 °F -11.2 °F 66% 29.94 in 10.0 mi NNW 24.2 mph - N/A   Clear
3:35 AM -2.2 °F -26.7 °F -13.0 °F 60% 29.94 in 10.0 mi NW 24.2 mph - N/A   Clear
3:55 AM -4.0 °F -30.0 °F -13.0 °F 65% 29.96 in 10.0 mi NNW 26.5 mph - N/A   Clear
4:15 AM -4.0 °F -28.6 °F -13.0 °F 65% 29.97 in 10.0 mi NW 23.0 mph - N/A   Clear
4:35 AM -4.0 °F -27.6 °F -13.0 °F 65% 29.98 in 10.0 mi NNW 20.7 mph 27.6 mph N/A   Clear
4:55 AM -4.0 °F -25.8 °F -13.0 °F 65% 30.00 in 10.0 mi NNW 17.3 mph 26.5 mph N/A   Clear
5:15 AM -5.8 °F -28.2 °F -14.8 °F 65% 30.01 in 10.0 mi NNW 17.3 mph 24.2 mph N/A   Clear
5:35 AM -5.8 °F -28.2 °F -14.8 °F 65% 30.03 in 10.0 mi NW 17.3 mph - N/A   Clear
5:50 AM -5.8 °F -27.5 °F -14.8 °F 65% 30.04 in 10.0 mi NW 16.1 mph - N/A   Clear
6:15 AM -7.6 °F -29.1 °F -16.6 °F 65% 30.05 in 10.0 mi NNW 15.0 mph - N/A   Clear
6:35 AM -7.6 °F -31.1 °F -18.4 °F 59% 30.06 in 10.0 mi NNW 18.4 mph - N/A   Clear
6:55 AM -7.6 °F -29.1 °F -16.6 °F 65% 30.07 in 10.0 mi NNW 15.0 mph - N/A   Clear
7:15 AM -7.6 °F -27.5 °F -18.4 °F 59% 30.09 in 10.0 mi NNW 12.7 mph - N/A   Clear
7:35 AM -7.6 °F -28.3 °F -18.4 °F 59% 30.09 in 10.0 mi NNW 13.8 mph 19.6 mph N/A   Clear
7:55 AM -7.6 °F -29.8 °F -18.4 °F 59% 30.10 in 10.0 mi NNW 16.1 mph - N/A   Clear
8:15 AM -7.6 °F -29.1 °F -18.4 °F 59% 30.11 in 10.0 mi NNW 15.0 mph - N/A   Clear
8:35 AM -7.6 °F -28.3 °F -20.2 °F 54% 30.14 in 10.0 mi NNW 13.8 mph - N/A   Clear
8:55 AM -7.6 °F -26.6 °F -20.2 °F 54% 30.15 in - NNW 11.5 mph 19.6 mph N/A   Clear
9:15 AM -5.8 °F -27.5 °F -20.2 °F 50% 30.15 in 10.0 mi NNW 16.1 mph - N/A   Clear
9:35 AM -5.8 °F -27.5 °F -20.2 °F 50% 30.16 in 10.0 mi NNW 16.1 mph - N/A   Clear
9:55 AM -5.8 °F -26.0 °F -20.2 °F 50% 30.17 in 10.0 mi NNW 13.8 mph - N/A   Clear
10:15 AM -5.8 °F -26.0 °F -20.2 °F 50% 30.18 in 10.0 mi NNW 13.8 mph - N/A   Clear
10:30 AM -5.8 °F -25.2 °F -20.2 °F 50% 30.18 in 10.0 mi NNW 12.7 mph - N/A   Clear
10:55 AM -5.8 °F -24.4 °F -20.2 °F 50% 30.17 in 10.0 mi NNW 11.5 mph - N/A   Clear
11:15 AM -5.8 °F -24.4 °F -18.4 °F 55% 30.17 in 10.0 mi NNW 11.5 mph - N/A   Clear
11:35 AM -4.0 °F -22.1 °F -18.4 °F 50% 30.17 in 10.0 mi NNW 11.5 mph - N/A   Clear
11:55 AM -4.0 °F -20.2 °F -16.6 °F 55% 30.17 in 10.0 mi NNW 9.2 mph - N/A   Clear
12:15 PM -4.0 °F -20.2 °F -16.6 °F 55% 30.17 in 10.0 mi NNW 9.2 mph - N/A   Clear
12:35 PM -4.0 °F -19.0 °F -16.6 °F 55% 30.16 in 10.0 mi NNW 8.1 mph - N/A   Clear
12:55 PM -4.0 °F -19.0 °F -16.6 °F 55% 30.16 in 10.0 mi NNW 8.1 mph - N/A   Clear
1:15 PM -2.2 °F -18.0 °F -16.6 °F 50% 30.15 in 10.0 mi NNW 9.2 mph - N/A   Clear
1:35 PM -2.2 °F -15.6 °F -16.6 °F 50% 30.16 in 10.0 mi NNW 6.9 mph - N/A   Clear
1:55 PM -2.2 °F -16.8 °F -16.6 °F 50% 30.15 in 10.0 mi North 8.1 mph - N/A   Clear
2:15 PM -2.2 °F -16.8 °F -16.6 °F 50% 30.15 in 10.0 mi NNW 8.1 mph - N/A   Clear
2:35 PM -2.2 °F -15.6 °F -16.6 °F 50% 30.15 in 10.0 mi North 6.9 mph - N/A   Clear
2:55 PM -2.2 °F -12.5 °F -16.6 °F 50% 30.15 in 10.0 mi North 4.6 mph - N/A   Clear
3:15 PM -2.2 °F -15.6 °F -16.6 °F 50% 30.14 in 10.0 mi NW 6.9 mph - N/A   Clear
3:35 PM -2.2 °F -12.5 °F -16.6 °F 50% 30.14 in 10.0 mi NNW 4.6 mph - N/A   Clear
3:55 PM -2.2 °F -10.4 °F -16.6 °F 50% 30.14 in 10.0 mi NW 3.5 mph - N/A   Clear
4:15 PM -2.2 °F -14.2 °F -16.6 °F 50% 30.14 in 10.0 mi NNW 5.8 mph - N/A   Clear
4:35 PM -2.2 °F -10.4 °F -16.6 °F 50% 30.14 in 10.0 mi Variable 3.5 mph - N/A   Clear
4:55 PM -2.2 °F -12.5 °F -16.6 °F 50% 30.13 in 10.0 mi NNW 4.6 mph - N/A   Clear
5:15 PM -2.2 °F -10.4 °F -16.6 °F 50% 30.13 in 10.0 mi North 3.5 mph - N/A   Clear
5:35 PM -2.2 °F -14.2 °F -16.6 °F 50% 30.12 in 10.0 mi NNE 5.8 mph - N/A   Clear
5:55 PM -4.0 °F -14.6 °F -16.6 °F 55% 30.12 in 10.0 mi NNE 4.6 mph - N/A   Clear
6:15 PM -4.0 °F -16.3 °F -16.6 °F 55% 30.12 in 10.0 mi NNE 5.8 mph - N/A   Clear
6:35 PM -4.0 °F -14.6 °F -16.6 °F 55% 30.12 in 10.0 mi NE 4.6 mph - N/A   Clear
6:55 PM -5.8 °F -14.5 °F -16.6 °F 60% 30.13 in 10.0 mi NNE 3.5 mph - N/A   Clear
7:15 PM -5.8 °F - -18.4 °F 55% 30.13 in 10.0 mi Calm Calm - N/A   Clear
7:35 PM -5.8 °F -14.5 °F -18.4 °F 55% 30.13 in 10.0 mi NE 3.5 mph - N/A   Clear
7:55 PM -5.8 °F -14.5 °F -18.4 °F 55% 30.13 in 10.0 mi ENE 3.5 mph - N/A   Clear
8:15 PM -5.8 °F - -18.4 °F 55% 30.12 in 10.0 mi Calm Calm - N/A   Clear
8:35 PM -5.8 °F - -18.4 °F 55% 30.13 in 10.0 mi Calm Calm - N/A   Clear
8:55 PM -5.8 °F -14.5 °F -18.4 °F 55% 30.12 in 10.0 mi ENE 3.5 mph - N/A   Clear
9:15 PM -7.6 °F - -18.4 °F 59% 30.13 in 10.0 mi Calm Calm - N/A   Clear
9:35 PM -7.6 °F -16.5 °F -18.4 °F 59% 30.13 in 10.0 mi ESE 3.5 mph - N/A   Clear
9:55 PM -7.6 °F - -18.4 °F 59% 30.12 in 10.0 mi Calm Calm - N/A   Clear
10:15 PM -7.6 °F -16.5 °F -18.4 °F 59% 30.12 in 10.0 mi East 3.5 mph - N/A   Clear
10:35 PM -9.4 °F -22.7 °F -16.6 °F 71% 30.11 in 10.0 mi East 5.8 mph - N/A   Clear
10:55 PM -9.4 °F -20.9 °F -18.4 °F 65% 30.11 in 10.0 mi East 4.6 mph - N/A   Clear
11:15 PM -9.4 °F - -18.4 °F 65% 30.11 in 10.0 mi Calm Calm - N/A   Clear
11:35 PM -9.4 °F -24.3 °F -18.4 °F 65% 30.09 in 10.0 mi East 6.9 mph - N/A   Clear
11:55 PM -9.4 °F -24.3 °F -18.4 °F 65% 30.08 in 10.0 mi East 6.9 mph - N/A   Clear